Time;durP1;ratioP1;P1;durP2;ratioP2;P2;SDS_P1;SDS_P2;PMS_P1;PMS_P2;Temp;Humidity;BMP_temperature;BMP_pressure;BME280_temperature;BME280_humidity;BME280_pressure;Samples;Min_cycle;Max_cycle;Signal;HPM_P1;HPM_P2
2022/11/21 00:01:36;;;;;;;;;;;6.90;99.90;;;;;;4956368;28;19949;-77
2022/11/21 00:04:03;;;;;;;;;;;6.90;99.90;;;;;;4959692;28;19941;-77
2022/11/21 00:06:29;;;;;;;;;;;6.90;99.90;;;;;;4957628;28;19930;-77
2022/11/21 00:08:56;;;;;;;;;;;6.90;99.90;;;;;;4957626;28;19941;-77
2022/11/21 00:11:23;;;;;;;;;;;6.90;99.90;;;;;;4959320;28;19937;-76
2022/11/21 00:13:49;;;;;;;;;;;6.90;99.90;;;;;;4958052;28;19937;-76
2022/11/21 00:16:16;;;;;;;;;;;6.90;99.90;;;;;;4957615;28;19938;-76
2022/11/21 00:18:44;;;;;;;;;;;6.90;99.90;;;;;;4956360;28;19935;-76
2022/11/21 00:21:12;;;;;;;;;;;6.90;99.90;;;;;;4952672;28;21226;-77
2022/11/21 00:23:39;;;;;;;;;;;6.90;99.90;;;;;;4956222;28;19930;-76
2022/11/21 00:26:06;;;;;;;;;;;6.90;99.90;;;;;;4961112;28;19945;-76
2022/11/21 00:28:32;;;;;;;;;;;6.80;99.90;;;;;;4956945;28;19930;-76
2022/11/21 00:30:59;;;;;;;;;;;6.90;99.90;;;;;;4952193;28;21561;-77
2022/11/21 00:33:25;;;;;;;;;;;6.90;99.90;;;;;;4954322;28;20691;-76
2022/11/21 00:35:53;;;;;;;;;;;6.90;99.90;;;;;;4953519;28;20356;-76
2022/11/21 00:38:20;;;;;;;;;;;6.90;99.90;;;;;;4951410;28;19950;-76
2022/11/21 00:40:46;;;;;;;;;;;6.80;99.90;;;;;;4954138;28;19930;-76
2022/11/21 00:43:13;;;;;;;;;;;6.90;99.90;;;;;;4961713;28;19930;-76
2022/11/21 00:45:40;;;;;;;;;;;6.90;99.90;;;;;;4956842;28;19937;-76
2022/11/21 00:48:07;;;;;;;;;;;6.80;99.90;;;;;;4953608;28;19930;-77
2022/11/21 00:50:33;;;;;;;;;;;6.80;99.90;;;;;;4955760;28;19929;-75
2022/11/21 00:53:01;;;;;;;;;;;6.80;99.90;;;;;;4954979;28;19931;-76
2022/11/21 00:55:28;;;;;;;;;;;6.80;99.90;;;;;;4956417;28;20437;-76
2022/11/21 00:57:54;;;;;;;;;;;6.80;99.90;;;;;;4953962;28;19932;-76
2022/11/21 01:00:21;;;;;;;;;;;6.80;99.90;;;;;;4951091;28;19934;-76
2022/11/21 01:02:47;;;;;;;;;;;6.80;99.90;;;;;;4953380;28;19946;-77
2022/11/21 01:05:14;;;;;;;;;;;6.80;99.90;;;;;;4953972;28;19930;-77
2022/11/21 01:07:40;;;;;;;;;;;6.80;99.90;;;;;;4955135;28;19934;-77
2022/11/21 01:10:08;;;;;;;;;;;6.80;99.90;;;;;;4952329;28;19934;-76
2022/11/21 01:12:35;;;;;;;;;;;6.80;99.90;;;;;;4953317;28;19935;-76
2022/11/21 01:15:02;;;;;;;;;;;6.80;99.90;;;;;;4957296;28;19930;-76
2022/11/21 01:17:28;;;;;;;;;;;6.80;99.90;;;;;;4954297;28;19930;-77
2022/11/21 01:19:55;;;;;;;;;;;6.80;99.90;;;;;;4952783;28;19933;-76
2022/11/21 01:22:22;;;;;;;;;;;6.80;99.90;;;;;;4951446;28;19930;-76
2022/11/21 01:24:48;;;;;;;;;;;6.80;99.90;;;;;;4953054;28;19938;-76
2022/11/21 01:27:16;;;;;;;;;;;6.80;99.90;;;;;;4950361;28;19937;-76
2022/11/21 01:29:42;;;;;;;;;;;6.80;99.90;;;;;;4952933;28;19965;-76
2022/11/21 01:32:09;;;;;;;;;;;6.80;99.90;;;;;;4953708;28;19930;-77
2022/11/21 01:34:36;;;;;;;;;;;6.80;99.90;;;;;;4953842;28;19934;-76
2022/11/21 01:37:02;;;;;;;;;;;6.80;99.90;;;;;;4949801;28;19938;-76
2022/11/21 01:39:29;;;;;;;;;;;6.80;99.90;;;;;;4953171;28;19963;-77
2022/11/21 01:41:55;;;;;;;;;;;6.80;99.90;;;;;;4951860;28;19941;-77
2022/11/21 01:44:24;;;;;;;;;;;6.80;99.90;;;;;;4957686;28;20420;-77
2022/11/21 01:46:51;;;;;;;;;;;6.80;99.90;;;;;;4957248;28;19934;-77
2022/11/21 01:49:19;;;;;;;;;;;6.80;99.90;;;;;;4954735;28;20367;-76
2022/11/21 01:51:49;;;;;;;;;;;6.80;99.90;;;;;;4955271;28;19941;-77
2022/11/21 01:54:18;;;;;;;;;;;6.80;99.90;;;;;;4957342;28;19934;-76
2022/11/21 01:56:46;;;;;;;;;;;6.80;99.90;;;;;;4955184;28;19934;-77
2022/11/21 01:59:17;;;;;;;;;;;6.80;99.90;;;;;;4952301;28;19942;-77
2022/11/21 02:01:45;;;;;;;;;;;6.80;99.90;;;;;;4945299;28;19945;-77
2022/11/21 02:04:12;;;;;;;;;;;6.80;99.90;;;;;;4954261;28;19930;-76
2022/11/21 02:06:39;;;;;;;;;;;6.80;99.90;;;;;;4951590;28;19930;-77
2022/11/21 02:09:05;;;;;;;;;;;6.80;99.90;;;;;;4959846;28;19930;-77
2022/11/21 02:11:35;;;;;;;;;;;6.70;99.90;;;;;;4951634;28;19934;-76
2022/11/21 02:14:01;;;;;;;;;;;6.80;99.90;;;;;;4958931;28;19930;-77
2022/11/21 02:16:28;;;;;;;;;;;6.80;99.90;;;;;;4960139;28;19930;-77
2022/11/21 02:18:56;;;;;;;;;;;6.80;99.90;;;;;;4959288;28;20319;-76
2022/11/21 02:21:29;;;;;;;;;;;6.80;99.90;;;;;;4957669;28;19930;-76
2022/11/21 02:24:01;;;;;;;;;;;6.80;99.90;;;;;;4959697;28;19934;-76
2022/11/21 02:26:29;;;;;;;;;;;6.80;99.90;;;;;;4953737;28;20408;-77
2022/11/21 02:28:56;;;;;;;;;;;6.80;99.90;;;;;;4961303;28;20313;-77
2022/11/21 02:31:23;;;;;;;;;;;6.80;99.90;;;;;;4958578;28;19930;-76
2022/11/21 02:33:49;;;;;;;;;;;6.80;99.90;;;;;;4961828;28;19937;-76
2022/11/21 02:36:35;;;;;;;;;;;6.80;99.90;;;;;;4962174;28;19933;-76
2022/11/21 02:39:02;;;;;;;;;;;6.80;99.90;;;;;;4959280;28;19930;-77
2022/11/21 02:41:31;;;;;;;;;;;6.80;99.90;;;;;;4955958;28;19930;-77
2022/11/21 02:44:01;;;;;;;;;;;6.80;99.90;;;;;;4951377;28;19934;-76
2022/11/21 02:46:28;;;;;;;;;;;6.80;99.90;;;;;;4950193;28;19934;-76
2022/11/21 02:48:56;;;;;;;;;;;6.80;99.90;;;;;;4952837;28;19937;-76
2022/11/21 02:51:22;;;;;;;;;;;6.80;99.90;;;;;;4953234;28;19930;-75
2022/11/21 02:53:49;;;;;;;;;;;6.80;99.90;;;;;;4954975;28;19930;-77
2022/11/21 02:56:15;;;;;;;;;;;6.80;99.90;;;;;;4950870;28;19930;-76
2022/11/21 02:58:43;;;;;;;;;;;6.80;99.90;;;;;;4951204;28;19930;-77
2022/11/21 03:01:10;;;;;;;;;;;6.80;99.90;;;;;;4950197;28;20300;-76
2022/11/21 03:03:36;;;;;;;;;;;6.80;99.90;;;;;;4953684;28;20678;-76
2022/11/21 03:06:03;;;;;;;;;;;6.80;99.90;;;;;;4952019;28;19941;-77
2022/11/21 03:08:30;;;;;;;;;;;6.70;99.90;;;;;;4953385;28;19930;-76
2022/11/21 03:10:56;;;;;;;;;;;6.80;99.90;;;;;;4955362;28;19934;-76
2022/11/21 03:13:23;;;;;;;;;;;6.80;99.90;;;;;;4953307;28;19930;-77
2022/11/21 03:15:51;;;;;;;;;;;6.80;99.90;;;;;;4956853;28;19934;-76
2022/11/21 03:18:17;;;;;;;;;;;6.80;99.90;;;;;;4954333;28;19945;-77
2022/11/21 03:20:44;;;;;;;;;;;6.80;99.90;;;;;;4944212;28;21245;-76
2022/11/21 03:23:10;;;;;;;;;;;6.80;99.90;;;;;;4952929;28;19930;-76
2022/11/21 03:25:37;;;;;;;;;;;6.80;99.90;;;;;;4951627;28;19937;-77
2022/11/21 03:28:04;;;;;;;;;;;6.80;99.90;;;;;;4954553;28;19937;-77
2022/11/21 03:30:30;;;;;;;;;;;6.80;99.90;;;;;;4948196;28;19931;-76
2022/11/21 03:32:58;;;;;;;;;;;6.80;99.90;;;;;;4951968;28;19935;-76
2022/11/21 03:35:25;;;;;;;;;;;6.80;99.90;;;;;;4955341;28;19934;-77
2022/11/21 03:37:52;;;;;;;;;;;6.80;99.90;;;;;;4952663;28;19934;-76
2022/11/21 03:40:18;;;;;;;;;;;6.80;99.90;;;;;;4950679;28;19942;-76
2022/11/21 03:42:45;;;;;;;;;;;6.80;99.90;;;;;;4953542;28;19930;-76
2022/11/21 03:45:11;;;;;;;;;;;6.80;99.90;;;;;;4951145;28;19930;-76
2022/11/21 03:47:38;;;;;;;;;;;6.80;99.90;;;;;;4947086;28;19931;-77
2022/11/21 03:50:06;;;;;;;;;;;6.80;99.90;;;;;;4953515;28;19941;-76
2022/11/21 03:52:33;;;;;;;;;;;6.80;99.90;;;;;;4949080;28;19934;-76
2022/11/21 03:54:59;;;;;;;;;;;6.80;99.90;;;;;;4946713;28;19930;-77
2022/11/21 03:57:26;;;;;;;;;;;6.80;99.90;;;;;;4951315;28;19930;-77
2022/11/21 03:59:53;;;;;;;;;;;6.70;99.90;;;;;;4950155;28;19937;-76
2022/11/21 04:02:19;;;;;;;;;;;6.80;99.90;;;;;;4942423;28;19934;-77
2022/11/21 04:04:46;;;;;;;;;;;6.80;99.90;;;;;;4945402;28;19930;-76
2022/11/21 04:07:15;;;;;;;;;;;6.80;99.90;;;;;;4952156;28;19941;-76
2022/11/21 04:09:41;;;;;;;;;;;6.80;99.90;;;;;;4952195;28;19930;-76
2022/11/21 04:12:08;;;;;;;;;;;6.80;99.90;;;;;;4951159;28;19934;-77
2022/11/21 04:14:34;;;;;;;;;;;6.70;99.90;;;;;;4946815;28;19934;-77
2022/11/21 04:17:01;;;;;;;;;;;6.70;99.90;;;;;;4948461;28;19930;-77
2022/11/21 04:19:27;;;;;;;;;;;6.80;99.90;;;;;;4945281;28;19956;-76
2022/11/21 04:21:54;;;;;;;;;;;6.80;99.90;;;;;;4950022;28;20392;-75
2022/11/21 04:24:22;;;;;;;;;;;6.80;99.90;;;;;;4952066;28;19931;-77
2022/11/21 04:26:49;;;;;;;;;;;6.80;99.90;;;;;;4951645;28;19941;-78
2022/11/21 04:29:15;;;;;;;;;;;6.80;99.90;;;;;;4954776;28;19934;-77
2022/11/21 04:31:42;;;;;;;;;;;6.80;99.90;;;;;;4950014;28;19937;-78
2022/11/21 04:34:08;;;;;;;;;;;6.80;99.90;;;;;;4956893;28;19930;-77
2022/11/21 04:36:35;;;;;;;;;;;6.80;99.90;;;;;;4957677;28;20559;-77
2022/11/21 04:39:01;;;;;;;;;;;6.80;99.90;;;;;;4955671;28;20068;-78
2022/11/21 04:41:29;;;;;;;;;;;6.80;99.90;;;;;;4960718;28;19934;-77
2022/11/21 04:43:56;;;;;;;;;;;6.80;99.90;;;;;;4957686;28;19930;-77
2022/11/21 04:46:22;;;;;;;;;;;6.80;99.90;;;;;;4957015;28;19941;-77
2022/11/21 04:48:49;;;;;;;;;;;6.80;99.90;;;;;;4953894;28;19934;-78
2022/11/21 04:51:15;;;;;;;;;;;6.80;99.90;;;;;;4957632;28;19937;-77
2022/11/21 04:53:42;;;;;;;;;;;6.80;99.90;;;;;;4958591;28;19930;-78
2022/11/21 04:56:08;;;;;;;;;;;6.80;99.90;;;;;;4953017;28;19937;-77
2022/11/21 04:58:36;;;;;;;;;;;6.80;99.90;;;;;;4957063;28;19930;-78
2022/11/21 05:01:07;;;;;;;;;;;6.90;99.90;;;;;;4957734;28;19930;-77
2022/11/21 05:03:33;;;;;;;;;;;6.80;99.90;;;;;;4958233;28;19957;-77
2022/11/21 05:06:00;;;;;;;;;;;6.80;99.90;;;;;;4955053;28;19930;-77
2022/11/21 05:08:26;;;;;;;;;;;6.80;99.90;;;;;;4950910;28;19930;-77
2022/11/21 05:13:38;;;;;;;;;;;6.80;99.90;;;;;;4951721;28;19934;-77
2022/11/21 05:16:05;;;;;;;;;;;6.70;99.90;;;;;;4953558;28;20017;-77
2022/11/21 05:18:31;;;;;;;;;;;6.80;99.90;;;;;;4957598;28;19930;-77
2022/11/21 05:20:58;;;;;;;;;;;6.80;99.90;;;;;;4952472;28;19934;-77
2022/11/21 05:23:24;;;;;;;;;;;6.80;99.90;;;;;;4963562;28;20411;-77
2022/11/21 05:25:51;;;;;;;;;;;6.80;99.90;;;;;;4960080;28;19957;-78
2022/11/21 05:28:17;;;;;;;;;;;6.80;99.90;;;;;;4956440;28;19930;-77
2022/11/21 05:30:46;;;;;;;;;;;6.80;99.90;;;;;;4957422;28;20027;-77
2022/11/21 05:33:12;;;;;;;;;;;6.80;99.90;;;;;;4958939;28;19934;-76
2022/11/21 05:35:39;;;;;;;;;;;6.80;99.90;;;;;;4959879;28;20427;-77
2022/11/21 05:38:05;;;;;;;;;;;6.80;99.90;;;;;;4949893;28;19937;-76
2022/11/21 05:40:32;;;;;;;;;;;6.70;99.90;;;;;;4957297;28;19930;-77
2022/11/21 05:45:42;;;;;;;;;;;6.70;99.90;;;;;;4951088;28;19934;-77
2022/11/21 05:48:10;;;;;;;;;;;6.80;99.90;;;;;;4953740;28;19930;-77
2022/11/21 05:50:37;;;;;;;;;;;6.70;99.90;;;;;;4957464;28;19934;-77
2022/11/21 05:53:04;;;;;;;;;;;6.70;99.90;;;;;;4957665;28;19930;-78
2022/11/21 05:55:30;;;;;;;;;;;6.80;99.90;;;;;;4955883;28;19930;-77
2022/11/21 05:57:58;;;;;;;;;;;6.70;99.90;;;;;;4954622;28;19950;-77
2022/11/21 06:00:24;;;;;;;;;;;6.80;99.90;;;;;;4949343;28;19937;-77
2022/11/21 06:05:36;;;;;;;;;;;6.70;99.90;;;;;;4958799;28;20104;-77
2022/11/21 06:08:03;;;;;;;;;;;6.70;99.90;;;;;;4957867;28;19941;-77
2022/11/21 06:10:30;;;;;;;;;;;6.70;99.90;;;;;;4954256;28;19937;-77
2022/11/21 06:12:59;;;;;;;;;;;6.70;99.90;;;;;;4955669;28;19937;-77
2022/11/21 06:15:25;;;;;;;;;;;6.70;99.90;;;;;;4953940;28;20625;-77
2022/11/21 06:17:52;;;;;;;;;;;6.70;99.90;;;;;;4953488;28;20667;-76
2022/11/21 06:20:18;;;;;;;;;;;6.70;99.90;;;;;;4955680;28;19930;-77
2022/11/21 06:22:46;;;;;;;;;;;6.70;99.90;;;;;;4956708;28;19937;-77
2022/11/21 06:25:13;;;;;;;;;;;6.70;99.90;;;;;;4954028;28;20846;-76
2022/11/21 06:27:39;;;;;;;;;;;6.70;99.90;;;;;;4962036;28;19957;-77
2022/11/21 06:30:07;;;;;;;;;;;6.60;99.90;;;;;;4949348;28;19931;-76
2022/11/21 06:32:36;;;;;;;;;;;6.70;99.90;;;;;;4955185;28;20343;-77
2022/11/21 06:35:02;;;;;;;;;;;6.70;99.90;;;;;;4955186;28;20422;-77
2022/11/21 06:37:30;;;;;;;;;;;6.70;99.90;;;;;;4955510;28;19929;-77
2022/11/21 06:39:58;;;;;;;;;;;6.70;99.90;;;;;;4950009;28;19934;-76
2022/11/21 06:42:24;;;;;;;;;;;6.60;99.90;;;;;;4950684;28;20478;-78
2022/11/21 06:44:52;;;;;;;;;;;6.60;99.90;;;;;;4952818;28;20339;-76
2022/11/21 06:47:18;;;;;;;;;;;6.60;99.90;;;;;;4956366;28;20028;-77
2022/11/21 06:49:45;;;;;;;;;;;6.60;99.90;;;;;;4952874;28;19931;-77
2022/11/21 06:52:11;;;;;;;;;;;6.60;99.90;;;;;;4949717;28;19930;-78
2022/11/21 06:54:38;;;;;;;;;;;6.60;99.90;;;;;;4955234;28;19935;-77
2022/11/21 06:57:06;;;;;;;;;;;6.60;99.90;;;;;;4950462;28;19930;-77
2022/11/21 06:59:32;;;;;;;;;;;6.60;99.90;;;;;;4955790;28;19930;-77
2022/11/21 07:01:59;;;;;;;;;;;6.60;99.90;;;;;;4953175;28;20431;-77
2022/11/21 07:04:26;;;;;;;;;;;6.60;99.90;;;;;;4957633;28;19934;-77
2022/11/21 07:06:53;;;;;;;;;;;6.60;99.90;;;;;;4951562;28;19930;-77
2022/11/21 07:09:19;;;;;;;;;;;6.60;99.90;;;;;;4953776;28;19937;-77
2022/11/21 07:11:46;;;;;;;;;;;6.60;99.90;;;;;;4956206;28;19930;-76
2022/11/21 07:14:13;;;;;;;;;;;6.60;99.90;;;;;;4952619;28;19930;-77
2022/11/21 07:16:39;;;;;;;;;;;6.60;99.90;;;;;;4953423;28;19930;-77
2022/11/21 07:19:06;;;;;;;;;;;6.60;99.90;;;;;;4951187;28;19930;-77
2022/11/21 07:21:32;;;;;;;;;;;6.60;99.90;;;;;;4954716;28;19937;-77
2022/11/21 07:23:59;;;;;;;;;;;6.60;99.90;;;;;;4951306;28;19937;-77
2022/11/21 07:26:26;;;;;;;;;;;6.60;99.90;;;;;;4953603;28;19938;-77
2022/11/21 07:28:52;;;;;;;;;;;6.60;99.90;;;;;;4956043;28;19937;-76
2022/11/21 07:31:20;;;;;;;;;;;6.60;99.90;;;;;;4956427;28;20195;-77
2022/11/21 07:33:47;;;;;;;;;;;6.50;99.90;;;;;;4957472;28;19934;-77
2022/11/21 07:36:13;;;;;;;;;;;6.50;99.90;;;;;;4960790;28;20701;-77
2022/11/21 07:38:40;;;;;;;;;;;6.60;99.90;;;;;;4956146;28;19934;-77
2022/11/21 07:41:07;;;;;;;;;;;6.50;99.90;;;;;;4952979;28;19978;-77
2022/11/21 07:43:33;;;;;;;;;;;6.50;99.90;;;;;;4954052;28;19950;-77
2022/11/21 07:46:00;;;;;;;;;;;6.50;99.90;;;;;;4959226;28;20412;-76
2022/11/21 07:48:28;;;;;;;;;;;6.50;99.90;;;;;;4953598;28;20404;-77
2022/11/21 07:50:54;;;;;;;;;;;6.50;99.90;;;;;;4957453;28;20598;-77
2022/11/21 07:53:21;;;;;;;;;;;6.60;99.90;;;;;;4956337;28;19931;-76
2022/11/21 07:55:48;;;;;;;;;;;6.60;99.90;;;;;;4951917;28;19931;-76
2022/11/21 07:58:15;;;;;;;;;;;6.50;99.90;;;;;;4957009;28;19926;-77
2022/11/21 08:00:42;;;;;;;;;;;6.50;99.90;;;;;;4959410;28;19936;-77
2022/11/21 08:03:10;;;;;;;;;;;6.50;99.90;;;;;;4963536;28;19935;-76
2022/11/21 08:05:39;;;;;;;;;;;6.50;99.90;;;;;;4960555;28;19936;-77
2022/11/21 08:08:06;;;;;;;;;;;6.60;99.90;;;;;;4962412;28;19972;-77
2022/11/21 08:10:32;;;;;;;;;;;6.60;99.90;;;;;;4962476;28;19937;-77
2022/11/21 08:12:59;;;;;;;;;;;6.50;99.90;;;;;;4959774;28;19941;-77
2022/11/21 08:15:25;;;;;;;;;;;6.60;99.90;;;;;;4956818;28;19937;-77
2022/11/21 08:17:52;;;;;;;;;;;6.60;99.90;;;;;;4957249;28;20474;-76
2022/11/21 08:20:19;;;;;;;;;;;6.60;99.90;;;;;;4956836;28;20475;-76
2022/11/21 08:22:46;;;;;;;;;;;6.60;99.90;;;;;;4961319;28;19930;-77
2022/11/21 08:25:13;;;;;;;;;;;6.60;99.90;;;;;;4964198;28;19929;-77
2022/11/21 08:27:41;;;;;;;;;;;6.60;99.90;;;;;;4963244;28;19930;-77
2022/11/21 08:30:09;;;;;;;;;;;6.60;99.90;;;;;;4961575;28;19934;-77
2022/11/21 08:32:35;;;;;;;;;;;6.60;99.90;;;;;;4959232;28;20252;-77
2022/11/21 08:35:02;;;;;;;;;;;6.60;99.90;;;;;;4959521;28;20331;-77
2022/11/21 08:37:28;;;;;;;;;;;6.70;99.90;;;;;;4959376;28;19954;-77
2022/11/21 08:39:58;;;;;;;;;;;6.60;99.90;;;;;;4962286;28;20009;-76
2022/11/21 08:42:24;;;;;;;;;;;6.60;99.90;;;;;;4958528;28;20013;-76
2022/11/21 08:44:51;;;;;;;;;;;6.60;99.90;;;;;;4953938;28;20674;-77
2022/11/21 08:47:19;;;;;;;;;;;6.70;99.90;;;;;;4961300;28;20718;-76
2022/11/21 08:49:45;;;;;;;;;;;6.70;99.90;;;;;;4961979;28;19969;-77
2022/11/21 08:52:12;;;;;;;;;;;6.60;99.90;;;;;;4961338;28;19934;-77
2022/11/21 08:54:38;;;;;;;;;;;6.70;99.90;;;;;;4954743;28;20433;-76
2022/11/21 08:57:06;;;;;;;;;;;6.70;99.90;;;;;;4964159;28;19945;-77
2022/11/21 08:59:33;;;;;;;;;;;6.60;99.90;;;;;;4954795;28;19937;-77
2022/11/21 09:01:59;;;;;;;;;;;6.70;99.90;;;;;;4963015;28;20582;-77
2022/11/21 09:04:26;;;;;;;;;;;6.70;99.90;;;;;;4961877;28;19941;-77
2022/11/21 09:06:53;;;;;;;;;;;6.70;99.90;;;;;;4961167;28;19930;-77
2022/11/21 09:09:19;;;;;;;;;;;6.70;99.90;;;;;;4960124;28;19954;-77
2022/11/21 09:11:46;;;;;;;;;;;6.70;99.90;;;;;;4953421;28;19937;-77
2022/11/21 09:19:42;;;;;;;;;;;6.70;99.90;;;;;;4961644;28;20041;-77
2022/11/21 09:22:08;;;;;;;;;;;6.70;99.90;;;;;;4960886;28;19930;-76
2022/11/21 09:24:35;;;;;;;;;;;6.70;99.90;;;;;;4951593;28;20154;-77
2022/11/21 09:27:02;;;;;;;;;;;6.70;99.90;;;;;;4962693;28;19930;-77
2022/11/21 09:29:30;;;;;;;;;;;6.70;99.90;;;;;;4961025;28;19950;-77
2022/11/21 09:31:56;;;;;;;;;;;6.70;99.90;;;;;;4958396;28;19953;-77
2022/11/21 09:34:23;;;;;;;;;;;6.80;99.90;;;;;;4959176;28;19929;-77
2022/11/21 09:36:50;;;;;;;;;;;6.80;99.90;;;;;;4955652;28;19945;-77
2022/11/21 09:39:17;;;;;;;;;;;6.70;99.90;;;;;;4959636;28;19934;-77
2022/11/21 09:41:53;;;;;;;;;;;6.70;99.90;;;;;;4962082;28;19930;-77
2022/11/21 09:44:31;;;;;;;;;;;6.80;99.90;;;;;;4955738;28;19930;-77
2022/11/21 09:47:03;;;;;;;;;;;6.80;99.90;;;;;;4959945;28;19934;-77
2022/11/21 09:49:30;;;;;;;;;;;6.80;99.90;;;;;;4961457;28;19930;-77
2022/11/21 09:51:57;;;;;;;;;;;6.80;99.90;;;;;;4951579;28;19930;-77
2022/11/21 09:54:26;;;;;;;;;;;6.80;99.90;;;;;;4957869;28;19937;-77
2022/11/21 09:56:53;;;;;;;;;;;6.90;99.90;;;;;;4953968;28;20344;-77
2022/11/21 09:59:27;;;;;;;;;;;7.00;99.90;;;;;;4962303;28;19930;-76
2022/11/21 10:01:54;;;;;;;;;;;6.90;99.90;;;;;;4957226;28;19930;-76
2022/11/21 10:04:22;;;;;;;;;;;6.90;99.90;;;;;;4956102;28;19941;-77
2022/11/21 10:06:54;;;;;;;;;;;7.00;99.90;;;;;;4959725;28;19930;-76
2022/11/21 10:09:25;;;;;;;;;;;7.00;99.90;;;;;;4957488;28;19930;-76
2022/11/21 10:14:45;;;;;;;;;;;7.00;99.90;;;;;;4955291;28;20404;-77
2022/11/21 10:17:16;;;;;;;;;;;7.00;99.90;;;;;;4960419;28;20470;-77
2022/11/21 10:19:51;;;;;;;;;;;7.10;99.80;;;;;;4951872;28;20407;-77
2022/11/21 10:22:24;;;;;;;;;;;7.10;99.70;;;;;;4952067;28;19941;-77
2022/11/21 10:24:55;;;;;;;;;;;7.20;99.60;;;;;;4957230;28;19930;-77
2022/11/21 10:27:25;;;;;;;;;;;7.30;99.50;;;;;;4955400;28;19930;-77
2022/11/21 10:29:54;;;;;;;;;;;7.30;99.30;;;;;;4958663;28;19930;-76
2022/11/21 10:32:23;;;;;;;;;;;7.30;99.10;;;;;;4954174;28;19937;-76
2022/11/21 10:34:53;;;;;;;;;;;7.40;99.00;;;;;;4958983;28;20463;-77
2022/11/21 10:37:35;;;;;;;;;;;7.50;98.90;;;;;;4961135;28;19930;-77
2022/11/21 10:40:07;;;;;;;;;;;7.50;98.80;;;;;;4955746;28;20657;-77
2022/11/21 10:42:36;;;;;;;;;;;7.50;98.60;;;;;;4961460;28;20018;-77
2022/11/21 10:47:49;;;;;;;;;;;7.60;98.50;;;;;;4950812;28;19952;-77
2022/11/21 10:50:33;;;;;;;;;;;7.70;98.40;;;;;;4954825;28;19937;-78
2022/11/21 10:54:31;;;;;;;;;;;7.70;98.30;;;;;;4957247;28;19934;-77
2022/11/21 10:55:57;;;;;;;;;;;7.80;98.20;;;;;;4954205;28;20021;-77
2022/11/21 10:58:33;;;;;;;;;;;7.80;98.10;;;;;;4955429;28;19930;-77
2022/11/21 11:00:59;;;;;;;;;;;7.90;98.00;;;;;;4957211;28;20537;-77
2022/11/21 11:03:26;;;;;;;;;;;7.90;98.00;;;;;;4961427;28;20415;-77
2022/11/21 11:05:56;;;;;;;;;;;7.90;97.90;;;;;;4959806;28;19945;-77
2022/11/21 11:08:25;;;;;;;;;;;7.90;97.90;;;;;;4961109;28;19965;-76
2022/11/21 11:11:01;;;;;;;;;;;7.90;97.90;;;;;;4951380;28;20765;-76
2022/11/21 11:13:33;;;;;;;;;;;7.90;97.90;;;;;;4950371;28;19934;-77
2022/11/21 11:16:02;;;;;;;;;;;7.90;97.90;;;;;;4953952;28;19941;-76
2022/11/21 11:18:29;;;;;;;;;;;7.90;98.00;;;;;;4954394;28;20137;-76
2022/11/21 11:21:09;;;;;;;;;;;7.90;98.00;;;;;;4947633;28;20451;-78
2022/11/21 11:23:35;;;;;;;;;;;7.90;98.00;;;;;;4948993;28;19930;-77
2022/11/21 11:26:02;;;;;;;;;;;7.90;98.00;;;;;;4944584;28;19937;-76
2022/11/21 11:28:34;;;;;;;;;;;7.90;98.00;;;;;;4946099;28;20455;-76
2022/11/21 11:31:00;;;;;;;;;;;7.90;98.00;;;;;;4945807;28;19962;-77
2022/11/21 11:33:28;;;;;;;;;;;7.90;98.30;;;;;;4948957;28;20427;-77
2022/11/21 11:35:56;;;;;;;;;;;8.00;98.00;;;;;;4952477;28;19941;-77
2022/11/21 11:38:26;;;;;;;;;;;7.90;97.90;;;;;;4954912;28;19937;-77
2022/11/21 11:40:53;;;;;;;;;;;8.00;98.00;;;;;;4956618;28;20662;-76
2022/11/21 11:49:15;;;;;;;;;;;8.10;97.90;;;;;;4898860;29;19927;-77
2022/11/21 11:51:44;;;;;;;;;;;8.10;97.90;;;;;;4900248;29;19935;-77
2022/11/21 11:54:16;;;;;;;;;;;8.10;97.80;;;;;;4922718;28;19953;-77
2022/11/21 11:56:43;;;;;;;;;;;8.20;97.80;;;;;;4954628;28;19961;-77
2022/11/21 11:59:12;;;;;;;;;;;8.20;97.70;;;;;;4958232;28;20281;-77
2022/11/21 12:01:40;;;;;;;;;;;8.30;97.60;;;;;;4953690;28;19929;-77
2022/11/21 12:04:11;;;;;;;;;;;8.30;97.50;;;;;;4954205;28;19934;-77
2022/11/21 12:06:41;;;;;;;;;;;8.30;97.50;;;;;;4958592;28;20604;-77
2022/11/21 12:09:14;;;;;;;;;;;8.30;97.50;;;;;;4958389;28;20327;-77
2022/11/21 12:12:08;;;;;;;;;;;8.30;97.50;;;;;;4952860;28;20005;-77
2022/11/21 12:17:33;;;;;;;;;;;8.30;97.60;;;;;;4948411;28;20037;-77
2022/11/21 12:20:03;;;;;;;;;;;8.30;97.60;;;;;;4954490;28;20599;-77
2022/11/21 12:22:30;;;;;;;;;;;8.30;97.70;;;;;;4954242;28;20033;-77
2022/11/21 12:24:56;;;;;;;;;;;8.30;97.70;;;;;;4955628;28;20389;-77
2022/11/21 12:27:31;;;;;;;;;;;8.20;97.70;;;;;;4955173;28;19931;-77
2022/11/21 12:30:08;;;;;;;;;;;8.30;97.80;;;;;;4950081;28;19934;-77
2022/11/21 12:32:44;;;;;;;;;;;8.30;97.80;;;;;;4953437;28;19937;-77
2022/11/21 12:35:28;;;;;;;;;;;8.40;97.80;;;;;;4954549;28;19930;-77
2022/11/21 12:38:00;;;;;;;;;;;8.40;97.70;;;;;;4954058;28;19937;-77
2022/11/21 12:40:33;;;;;;;;;;;8.50;97.70;;;;;;4950050;28;19934;-77
2022/11/21 12:43:08;;;;;;;;;;;8.50;97.70;;;;;;4955368;28;19934;-77
2022/11/21 12:45:36;;;;;;;;;;;8.60;97.20;;;;;;4952594;28;19936;-76
2022/11/21 12:56:46;;;;;;;;;;;8.80;96.90;;;;;;4953147;28;19936;-77
2022/11/21 12:59:14;;;;;;;;;;;8.80;96.90;;;;;;4952621;28;19930;-77
2022/11/21 13:01:46;;;;;;;;;;;8.80;96.80;;;;;;4952427;28;19984;-77
2022/11/21 13:04:15;;;;;;;;;;;8.90;96.80;;;;;;4953894;28;19952;-76
2022/11/21 13:06:43;;;;;;;;;;;8.90;96.80;;;;;;4953884;28;19938;-76
2022/11/21 13:09:13;;;;;;;;;;;8.80;96.60;;;;;;4956692;28;19961;-78
2022/11/21 13:11:59;;;;;;;;;;;8.90;96.00;;;;;;4953028;28;20422;-78
2022/11/21 13:14:33;;;;;;;;;;;8.90;96.20;;;;;;4954132;28;19934;-78
2022/11/21 13:17:06;;;;;;;;;;;9.00;96.70;;;;;;4950965;28;19930;-78
2022/11/21 13:19:36;;;;;;;;;;;9.10;96.90;;;;;;4957133;28;19956;-78
2022/11/21 13:22:03;;;;;;;;;;;9.20;97.20;;;;;;4953321;28;19931;-77
2022/11/21 13:24:48;;;;;;;;;;;9.30;97.20;;;;;;4950282;28;19930;-78
2022/11/21 13:27:24;;;;;;;;;;;9.40;97.30;;;;;;4950129;28;19940;-78
2022/11/21 13:30:05;;;;;;;;;;;9.40;97.40;;;;;;4956883;28;19938;-77
2022/11/21 13:32:40;;;;;;;;;;;9.50;97.40;;;;;;4951509;28;19938;-79
2022/11/21 13:35:21;;;;;;;;;;;9.50;97.40;;;;;;4950881;28;19941;-78
2022/11/21 13:38:01;;;;;;;;;;;9.60;97.30;;;;;;4956132;28;19930;-78
2022/11/21 13:40:35;;;;;;;;;;;9.60;97.40;;;;;;4960513;28;19930;-78
2022/11/21 13:43:21;;;;;;;;;;;9.70;97.40;;;;;;4951879;28;19938;-78
2022/11/21 13:45:49;;;;;;;;;;;9.80;97.20;;;;;;4955302;28;19927;-78
2022/11/21 13:48:20;;;;;;;;;;;9.80;97.00;;;;;;4951627;28;19930;-78
2022/11/21 13:50:52;;;;;;;;;;;9.90;96.90;;;;;;4954319;28;19934;-79
2022/11/21 13:53:26;;;;;;;;;;;9.90;96.90;;;;;;4954405;28;19934;-77
2022/11/21 13:55:56;;;;;;;;;;;10.00;96.80;;;;;;4950990;28;19937;-79
2022/11/21 13:58:28;;;;;;;;;;;10.00;96.70;;;;;;4956739;28;20024;-79
2022/11/21 14:01:00;;;;;;;;;;;10.10;96.70;;;;;;4949720;28;19930;-78
2022/11/21 14:03:39;;;;;;;;;;;10.10;96.70;;;;;;4950106;28;19942;-78
2022/11/21 14:06:13;;;;;;;;;;;10.10;96.70;;;;;;4953223;28;19934;-77
2022/11/21 14:08:40;;;;;;;;;;;10.10;96.60;;;;;;4952875;28;19937;-77
2022/11/21 14:11:18;;;;;;;;;;;10.10;96.50;;;;;;4951405;28;19934;-77
2022/11/21 14:13:46;;;;;;;;;;;10.10;96.50;;;;;;4952767;28;20404;-77
2022/11/21 14:16:23;;;;;;;;;;;10.10;96.50;;;;;;4953433;28;20379;-78
2022/11/21 14:18:52;;;;;;;;;;;10.10;96.60;;;;;;4958249;28;20680;-77
2022/11/21 14:21:20;;;;;;;;;;;10.10;96.60;;;;;;4956220;28;19976;-78
2022/11/21 14:23:47;;;;;;;;;;;10.20;96.70;;;;;;4956661;28;19977;-78
2022/11/21 14:26:14;;;;;;;;;;;10.10;97.10;;;;;;4952684;28;19954;-78
2022/11/21 14:28:41;;;;;;;;;;;10.10;96.80;;;;;;4958997;28;19934;-78
2022/11/21 14:31:08;;;;;;;;;;;10.10;96.80;;;;;;4958016;28;19930;-79
2022/11/21 14:33:36;;;;;;;;;;;10.10;96.90;;;;;;4953881;28;19933;-77
2022/11/21 14:36:05;;;;;;;;;;;10.10;96.90;;;;;;4958658;28;19937;-78
2022/11/21 14:38:33;;;;;;;;;;;10.10;97.00;;;;;;4951138;28;20138;-78
2022/11/21 14:41:23;;;;;;;;;;;10.10;97.10;;;;;;4960019;28;20432;-78
2022/11/21 14:43:50;;;;;;;;;;;10.10;97.10;;;;;;4958289;28;19934;-78
2022/11/21 14:46:20;;;;;;;;;;;10.10;97.20;;;;;;4962589;28;20010;-78
2022/11/21 14:48:47;;;;;;;;;;;10.00;97.20;;;;;;4950647;28;19930;-78
2022/11/21 14:51:16;;;;;;;;;;;10.00;97.30;;;;;;4952568;28;19934;-79
2022/11/21 14:53:45;;;;;;;;;;;10.00;97.30;;;;;;4961831;28;19929;-78
2022/11/21 14:56:19;;;;;;;;;;;10.00;97.40;;;;;;4957040;28;20033;-78
2022/11/21 14:58:48;;;;;;;;;;;10.00;97.40;;;;;;4960141;28;21486;-77
2022/11/21 15:01:19;;;;;;;;;;;10.00;97.40;;;;;;4961407;28;20009;-78
2022/11/21 15:03:54;;;;;;;;;;;10.00;97.50;;;;;;4962959;28;19930;-78
2022/11/21 15:06:22;;;;;;;;;;;10.00;97.50;;;;;;4956753;28;20652;-77
2022/11/21 15:08:48;;;;;;;;;;;9.90;97.50;;;;;;4957685;28;20558;-78
2022/11/21 15:11:16;;;;;;;;;;;10.00;97.60;;;;;;4954754;28;19941;-79
2022/11/21 15:13:43;;;;;;;;;;;10.00;97.70;;;;;;4960957;28;19937;-79